createdAt,value
2022-11-13T00:01:47.372Z,5.20
2022-11-13T00:04:35.243Z,5.00
2022-11-13T00:07:23.381Z,5.00
2022-11-13T00:10:11.619Z,4.90
2022-11-13T00:12:59.483Z,4.90
2022-11-13T00:16:02.589Z,5.00
2022-11-13T00:18:50.647Z,4.90
2022-11-13T00:21:38.701Z,4.90
2022-11-13T00:24:29.074Z,5.10
2022-11-13T00:27:16.875Z,5.00
2022-11-13T00:30:05.849Z,4.90
2022-11-13T00:32:56.023Z,4.90
2022-11-13T00:35:43.803Z,5.00
2022-11-13T00:38:31.906Z,5.00
2022-11-13T00:41:20.040Z,5.00
2022-11-13T00:44:08.287Z,4.70
2022-11-13T00:46:56.045Z,4.50
2022-11-13T00:49:43.826Z,4.20
2022-11-13T00:52:31.797Z,4.10
2022-11-13T00:55:19.548Z,4.20
2022-11-13T00:58:07.420Z,4.30
2022-11-13T01:00:55.353Z,4.30
2022-11-13T01:03:43.526Z,4.30
2022-11-13T01:06:31.338Z,4.30
2022-11-13T01:09:19.144Z,4.50
2022-11-13T01:12:06.955Z,4.40
2022-11-13T01:14:55.042Z,4.40
2022-11-13T01:17:43.022Z,4.40
2022-11-13T01:20:32.607Z,4.50
2022-11-13T01:23:20.425Z,4.60
2022-11-13T01:26:30.036Z,4.70
2022-11-13T01:29:17.914Z,4.80
2022-11-13T01:32:05.864Z,4.90
2022-11-13T01:34:53.771Z,4.80
2022-11-13T01:37:44.211Z,4.80
2022-11-13T01:40:31.994Z,4.60
2022-11-13T01:43:38.413Z,4.50
2022-11-13T01:46:35.951Z,4.50
2022-11-13T01:49:37.785Z,4.40
2022-11-13T01:52:34.258Z,4.40
2022-11-13T01:55:22.303Z,4.40
2022-11-13T01:58:11.436Z,4.50
2022-11-13T02:00:59.695Z,4.40
2022-11-13T02:03:47.635Z,4.20
2022-11-13T02:06:51.496Z,4.20
2022-11-13T02:09:59.914Z,4.20
2022-11-13T02:12:52.067Z,4.20
2022-11-13T02:15:40.799Z,4.10
2022-11-13T02:18:30.793Z,4.10
2022-11-13T02:21:43.330Z,4.00
2022-11-13T02:24:44.832Z,3.70
2022-11-13T02:27:40.519Z,3.80
2022-11-13T02:30:32.680Z,3.90
2022-11-13T02:33:33.817Z,3.90
2022-11-13T02:36:24.287Z,3.90
2022-11-13T02:39:14.228Z,4.00
2022-11-13T02:42:02.240Z,4.00
2022-11-13T02:44:50.245Z,4.00
2022-11-13T02:47:38.224Z,4.20
2022-11-13T02:50:26.148Z,4.20
2022-11-13T02:53:13.995Z,4.30
2022-11-13T02:56:01.913Z,4.30
2022-11-13T02:58:49.935Z,4.30
2022-11-13T03:01:37.902Z,4.10
2022-11-13T03:04:31.477Z,3.90
2022-11-13T03:07:26.453Z,3.90
2022-11-13T03:10:14.888Z,3.80
2022-11-13T03:13:03.035Z,3.70
2022-11-13T03:15:50.817Z,3.50
2022-11-13T03:18:38.948Z,3.50
2022-11-13T03:21:26.824Z,3.40
2022-11-13T03:24:14.655Z,3.30
2022-11-13T03:27:02.753Z,3.30
2022-11-13T03:29:50.681Z,3.40
2022-11-13T03:32:38.471Z,3.50
2022-11-13T03:35:30.476Z,3.40
2022-11-13T03:38:19.207Z,3.10
2022-11-13T03:41:07.123Z,2.90
2022-11-13T03:43:55.107Z,2.70
2022-11-13T03:46:43.075Z,2.60
2022-11-13T03:49:30.901Z,2.70
2022-11-13T03:52:18.765Z,2.70
2022-11-13T03:55:06.933Z,2.70
2022-11-13T03:57:55.715Z,2.70
2022-11-13T04:00:45.276Z,2.80
2022-11-13T04:03:33.308Z,2.70
2022-11-13T04:06:21.996Z,2.80
2022-11-13T04:09:09.916Z,2.90
2022-11-13T04:11:57.741Z,2.90
2022-11-13T04:14:45.599Z,2.90
2022-11-13T04:17:34.087Z,2.90
2022-11-13T04:20:22.291Z,2.90
2022-11-13T04:23:12.595Z,3.00
2022-11-13T04:26:00.483Z,3.10
2022-11-13T04:28:48.271Z,2.90
2022-11-13T04:31:36.188Z,2.90
2022-11-13T04:34:24.064Z,2.80
2022-11-13T04:37:11.967Z,2.80
2022-11-13T04:39:59.827Z,2.70
2022-11-13T04:42:50.243Z,2.80
2022-11-13T04:45:38.097Z,2.70
2022-11-13T04:48:26.180Z,2.60
2022-11-13T04:51:14.368Z,2.60
2022-11-13T04:54:02.360Z,2.50
2022-11-13T04:56:50.231Z,2.30
2022-11-13T04:59:38.107Z,2.20
2022-11-13T05:02:26.270Z,2.20
2022-11-13T05:05:14.144Z,2.20
2022-11-13T05:08:02.106Z,2.20
2022-11-13T05:10:49.879Z,2.30
2022-11-13T05:13:37.805Z,2.40
2022-11-13T05:16:25.733Z,2.50
2022-11-13T05:19:13.668Z,2.60
2022-11-13T05:22:01.891Z,2.70
2022-11-13T05:24:49.651Z,2.60
2022-11-13T05:27:37.432Z,2.60
2022-11-13T05:30:25.482Z,2.60
2022-11-13T05:33:13.313Z,2.80
2022-11-13T05:36:20.467Z,2.80
2022-11-13T05:39:08.286Z,2.70
2022-11-13T05:41:56.096Z,2.80
2022-11-13T05:44:43.951Z,2.90
2022-11-13T05:47:33.362Z,2.80
2022-11-13T05:50:21.233Z,2.90
2022-11-13T05:53:11.376Z,2.80
2022-11-13T05:56:08.244Z,2.70
2022-11-13T05:58:57.729Z,2.60
2022-11-13T06:01:45.528Z,2.50
2022-11-13T06:04:33.529Z,2.40
2022-11-13T06:07:21.536Z,2.30
2022-11-13T06:10:09.738Z,2.30
2022-11-13T06:12:57.643Z,2.40
2022-11-13T06:15:45.457Z,2.30
2022-11-13T06:18:34.490Z,2.30
2022-11-13T06:21:26.656Z,2.30
2022-11-13T06:24:14.511Z,2.30
2022-11-13T06:27:02.378Z,2.30
2022-11-13T06:29:50.188Z,2.30
2022-11-13T06:32:38.093Z,2.30
2022-11-13T06:35:26.283Z,2.30
2022-11-13T06:38:14.508Z,2.20
2022-11-13T06:41:04.158Z,2.20
2022-11-13T06:43:52.328Z,2.20
2022-11-13T06:46:40.154Z,2.20
2022-11-13T06:49:27.935Z,2.20
2022-11-13T06:52:15.719Z,2.30
2022-11-13T06:55:03.720Z,2.30
2022-11-13T06:57:51.526Z,2.30
2022-11-13T07:00:40.743Z,2.30
2022-11-13T07:03:28.614Z,2.30
2022-11-13T07:06:22.292Z,2.40
2022-11-13T07:09:10.295Z,2.30
2022-11-13T07:11:58.368Z,2.40
2022-11-13T07:14:46.351Z,2.50
2022-11-13T07:17:34.328Z,2.50
2022-11-13T07:20:22.317Z,2.70
2022-11-13T07:23:10.633Z,2.90
2022-11-13T07:25:58.590Z,3.10
2022-11-13T07:28:47.653Z,3.30
2022-11-13T07:31:36.072Z,3.80
2022-11-13T07:34:25.877Z,4.20
2022-11-13T07:37:13.866Z,4.10
2022-11-13T07:40:02.596Z,4.40
2022-11-13T07:43:01.965Z,4.40
2022-11-13T07:45:54.603Z,4.20
2022-11-13T07:48:42.726Z,4.40
2022-11-13T07:51:30.793Z,4.70
2022-11-13T07:54:18.823Z,4.70
2022-11-13T07:57:06.754Z,5.60
2022-11-13T07:59:54.781Z,7.60
2022-11-13T08:02:42.719Z,8.10
2022-11-13T08:05:30.926Z,8.70
2022-11-13T08:08:18.983Z,9.50
2022-11-13T08:11:09.530Z,9.50
2022-11-13T08:13:57.462Z,9.30
2022-11-13T08:16:45.570Z,9.50
2022-11-13T08:19:33.458Z,9.90
2022-11-13T08:22:21.531Z,11.40
2022-11-13T08:25:09.599Z,11.10
2022-11-13T08:27:59.890Z,12.30
2022-11-13T08:30:47.921Z,13.00
2022-11-13T08:33:35.790Z,14.40
2022-11-13T08:36:24.200Z,15.00
2022-11-13T08:39:15.216Z,14.90
2022-11-13T08:42:04.895Z,15.20
2022-11-13T08:44:55.204Z,15.20
2022-11-13T08:47:43.091Z,15.40
2022-11-13T08:50:33.150Z,15.20
2022-11-13T08:53:22.824Z,14.90
2022-11-13T08:56:10.744Z,15.30
2022-11-13T08:59:00.989Z,16.10
2022-11-13T09:01:49.077Z,16.60
2022-11-13T09:04:37.045Z,17.20
2022-11-13T09:07:27.644Z,15.40
2022-11-13T09:10:17.900Z,15.50
2022-11-13T09:13:08.982Z,16.40
2022-11-13T09:15:59.698Z,16.60
2022-11-13T09:18:51.614Z,14.30
2022-11-13T09:21:39.479Z,14.50
2022-11-13T09:24:27.538Z,14.40
2022-11-13T09:27:18.593Z,14.50
2022-11-13T09:30:07.292Z,15.60
2022-11-13T09:33:00.724Z,15.60
2022-11-13T09:35:48.736Z,16.20
2022-11-13T09:38:36.668Z,15.50
2022-11-13T09:41:31.499Z,16.30
2022-11-13T09:44:47.086Z,15.20
2022-11-13T09:47:42.676Z,16.40
2022-11-13T09:50:32.000Z,16.60
2022-11-13T09:53:22.355Z,16.60
2022-11-13T09:56:27.860Z,16.50
2022-11-13T09:59:29.225Z,17.90
2022-11-13T10:02:54.091Z,18.10
2022-11-13T10:06:21.372Z,18.20
2022-11-13T10:09:32.080Z,18.50
2022-11-13T10:12:29.129Z,19.20
2022-11-13T10:15:20.515Z,20.40
2022-11-13T10:18:33.788Z,20.30
2022-11-13T10:21:39.408Z,21.40
2022-11-13T10:24:40.955Z,21.60
2022-11-13T10:27:29.642Z,22.50
2022-11-13T10:30:21.033Z,21.90
2022-11-13T10:33:18.817Z,21.10
2022-11-13T10:36:37.064Z,22.00
2022-11-13T10:39:27.830Z,23.00
2022-11-13T10:42:36.999Z,23.30
2022-11-13T10:45:26.638Z,23.50
2022-11-13T10:48:50.164Z,24.20
2022-11-13T10:53:01.585Z,25.00
2022-11-13T10:59:55.869Z,22.40
2022-11-13T11:03:01.675Z,23.00
2022-11-13T11:06:56.375Z,24.10
2022-11-13T11:10:27.977Z,25.00
2022-11-13T11:13:44.651Z,24.60
2022-11-13T11:16:49.441Z,24.90
2022-11-13T11:20:42.506Z,24.30
2022-11-13T11:24:26.120Z,24.70
2022-11-13T11:31:45.280Z,25.60
2022-11-13T11:44:58.383Z,24.90
2022-11-13T11:49:11.791Z,24.60
2022-11-13T11:53:05.268Z,25.10
2022-11-13T11:57:11.986Z,24.60
2022-11-13T12:01:03.319Z,23.20
2022-11-13T12:08:32.403Z,19.00
2022-11-13T12:11:38.580Z,17.90
2022-11-13T12:14:50.957Z,17.90
2022-11-13T12:18:04.736Z,17.10
2022-11-13T12:22:30.557Z,17.10
2022-11-13T12:26:17.349Z,17.10
2022-11-13T12:29:56.385Z,18.50
2022-11-13T12:33:29.345Z,17.70
2022-11-13T12:36:29.378Z,19.00
2022-11-13T12:40:03.176Z,21.10
2022-11-13T12:43:32.375Z,22.10
2022-11-13T12:46:41.606Z,20.80
2022-11-13T12:50:32.112Z,20.40
2022-11-13T12:53:45.150Z,21.00
2022-11-13T12:56:40.759Z,19.70
2022-11-13T12:59:53.188Z,19.10
2022-11-13T13:02:59.154Z,19.20
2022-11-13T13:06:11.978Z,20.00
2022-11-13T13:09:33.636Z,21.30
2022-11-13T13:12:39.126Z,21.70
2022-11-13T13:15:37.093Z,21.60
2022-11-13T13:18:33.390Z,21.40
2022-11-13T13:21:22.108Z,21.10
2022-11-13T13:24:38.598Z,22.30
2022-11-13T13:27:30.653Z,22.90
2022-11-13T13:30:27.721Z,23.90
2022-11-13T13:33:42.311Z,24.20
2022-11-13T13:36:49.260Z,22.90
2022-11-13T13:40:11.325Z,22.60
2022-11-13T13:43:27.364Z,21.90
2022-11-13T13:46:27.547Z,22.70
2022-11-13T13:49:24.324Z,23.70
2022-11-13T13:52:16.213Z,23.80
2022-11-13T13:55:09.460Z,24.10
2022-11-13T13:58:02.763Z,23.90
2022-11-13T14:01:20.265Z,23.40
2022-11-13T14:04:27.352Z,23.60
2022-11-13T14:07:30.904Z,23.50
2022-11-13T14:10:28.580Z,23.60
2022-11-13T14:13:30.867Z,23.70
2022-11-13T14:16:19.059Z,23.30
2022-11-13T14:19:11.447Z,23.20
2022-11-13T14:22:10.857Z,23.40
2022-11-13T14:25:04.228Z,23.50
2022-11-13T14:27:53.179Z,23.50
2022-11-13T14:30:44.902Z,23.50
2022-11-13T14:33:44.680Z,23.00
2022-11-13T14:36:41.219Z,22.30
2022-11-13T14:39:34.593Z,21.80
2022-11-13T14:42:29.449Z,21.50
2022-11-13T14:45:33.764Z,21.10
2022-11-13T14:48:29.104Z,21.00
2022-11-13T14:51:30.407Z,20.50
2022-11-13T14:55:14.397Z,19.90
2022-11-13T14:57:55.406Z,19.20
2022-11-13T15:00:43.758Z,17.60
2022-11-13T15:03:32.567Z,17.00
2022-11-13T15:06:24.895Z,16.50
2022-11-13T15:09:16.636Z,16.00
2022-11-13T15:12:04.850Z,15.00
2022-11-13T15:14:52.935Z,14.10
2022-11-13T15:17:43.696Z,13.50
2022-11-13T15:20:32.828Z,13.10
2022-11-13T15:23:27.116Z,12.80
2022-11-13T15:26:15.656Z,12.60
2022-11-13T15:29:12.696Z,12.60
2022-11-13T15:32:05.625Z,12.50
2022-11-13T15:35:01.641Z,12.50
2022-11-13T15:37:56.526Z,12.40
2022-11-13T15:40:44.580Z,12.40
2022-11-13T15:43:36.142Z,12.20
2022-11-13T15:46:25.294Z,12.30
2022-11-13T15:49:24.257Z,12.30
2022-11-13T15:52:17.654Z,12.20
2022-11-13T15:55:32.870Z,12.20
2022-11-13T15:58:21.150Z,12.20
2022-11-13T16:01:32.655Z,12.00
2022-11-13T16:04:22.295Z,11.80
2022-11-13T16:07:21.636Z,11.60
2022-11-13T16:10:12.692Z,11.50
2022-11-13T16:13:00.634Z,11.40
2022-11-13T16:15:49.620Z,10.90
2022-11-13T16:18:43.152Z,10.90
2022-11-13T16:21:34.097Z,10.80
2022-11-13T16:24:24.363Z,10.80
2022-11-13T16:27:32.035Z,10.50
2022-11-13T16:30:26.980Z,10.40
2022-11-13T16:33:17.689Z,10.20
2022-11-13T16:36:10.172Z,10.20
2022-11-13T16:39:00.081Z,10.20
2022-11-13T16:41:50.428Z,10.00
2022-11-13T16:44:38.995Z,9.70
2022-11-13T16:47:37.654Z,9.80
2022-11-13T16:50:31.810Z,9.80
2022-11-13T16:53:20.094Z,9.90
2022-11-13T16:56:27.545Z,9.90
2022-11-13T16:59:16.086Z,9.80
2022-11-13T17:02:04.403Z,9.80
2022-11-13T17:04:56.030Z,9.80
2022-11-13T17:07:47.257Z,9.50
2022-11-13T17:10:35.621Z,9.40
2022-11-13T17:13:23.753Z,9.30
2022-11-13T17:16:13.211Z,9.30
2022-11-13T17:19:03.408Z,9.20
2022-11-13T17:21:53.979Z,9.00
2022-11-13T17:24:42.018Z,8.90
2022-11-13T17:27:30.013Z,8.80
2022-11-13T17:30:18.073Z,8.60
2022-11-13T17:33:06.155Z,8.60
2022-11-13T17:35:55.977Z,8.70
2022-11-13T17:38:46.144Z,8.80
2022-11-13T17:41:38.088Z,8.70
2022-11-13T17:44:30.266Z,8.50
2022-11-13T17:47:18.789Z,8.60
2022-11-13T17:50:07.964Z,8.60
2022-11-13T17:52:56.086Z,8.50
2022-11-13T17:55:44.858Z,8.50
2022-11-13T17:58:41.716Z,8.50
2022-11-13T18:01:31.750Z,8.40
2022-11-13T18:04:19.996Z,8.30
2022-11-13T18:07:08.173Z,8.20
2022-11-13T18:09:59.428Z,8.10
2022-11-13T18:12:47.674Z,8.20
2022-11-13T18:15:39.087Z,8.20
2022-11-13T18:18:28.914Z,8.10
2022-11-13T18:21:25.606Z,8.10
2022-11-13T18:24:18.245Z,7.80
2022-11-13T18:27:13.766Z,7.70
2022-11-13T18:30:04.065Z,7.70
2022-11-13T18:32:52.091Z,7.80
2022-11-13T18:35:40.265Z,7.80
2022-11-13T18:38:28.680Z,7.90
2022-11-13T18:41:20.394Z,7.90
2022-11-13T18:44:10.998Z,7.80
2022-11-13T18:47:02.044Z,8.00
2022-11-13T18:49:58.082Z,8.00
2022-11-13T18:52:46.074Z,8.10
2022-11-13T18:55:34.010Z,7.90
2022-11-13T18:58:22.047Z,7.80
2022-11-13T19:01:22.508Z,7.90
2022-11-13T19:04:27.444Z,7.80
2022-11-13T19:07:21.141Z,7.70
2022-11-13T19:10:09.629Z,7.70
2022-11-13T19:12:57.544Z,7.50
2022-11-13T19:15:47.652Z,7.50
2022-11-13T19:18:38.087Z,7.20
2022-11-13T19:21:30.640Z,7.10
2022-11-13T19:24:18.662Z,7.20
2022-11-13T19:27:09.350Z,7.20
2022-11-13T19:29:57.830Z,7.40
2022-11-13T19:32:45.773Z,7.40
2022-11-13T19:35:38.927Z,7.40
2022-11-13T19:38:33.024Z,7.30
2022-11-13T19:41:22.938Z,7.10
2022-11-13T19:44:13.451Z,7.30
2022-11-13T19:47:01.417Z,7.30
2022-11-13T19:49:49.680Z,7.10
2022-11-13T19:52:38.721Z,7.10
2022-11-13T19:55:26.706Z,7.20
2022-11-13T19:58:20.706Z,7.30
2022-11-13T20:01:11.744Z,7.30
2022-11-13T20:04:04.119Z,7.20
2022-11-13T20:06:52.145Z,7.20
2022-11-13T20:09:47.490Z,7.10
2022-11-13T20:12:35.921Z,7.20
2022-11-13T20:15:37.140Z,7.20
2022-11-13T20:18:33.556Z,7.00
2022-11-13T20:21:28.693Z,6.80
2022-11-13T20:24:19.824Z,7.00
2022-11-13T20:27:09.419Z,6.80
2022-11-13T20:30:02.937Z,6.80
2022-11-13T20:32:53.742Z,6.80
2022-11-13T20:35:46.921Z,6.80
2022-11-13T20:38:41.621Z,6.80
2022-11-13T20:41:32.374Z,6.70
2022-11-13T20:44:46.917Z,6.80
2022-11-13T20:47:42.003Z,6.80
2022-11-13T20:50:34.763Z,7.00
2022-11-13T20:53:29.797Z,6.70
2022-11-13T20:56:23.586Z,6.60
2022-11-13T20:59:11.846Z,6.50
2022-11-13T21:02:00.062Z,6.50
2022-11-13T21:04:54.207Z,6.40
2022-11-13T21:07:51.393Z,6.40
2022-11-13T21:10:39.503Z,6.40
2022-11-13T21:13:32.020Z,6.50
2022-11-13T21:16:20.267Z,6.40
2022-11-13T21:19:09.968Z,6.40
2022-11-13T21:21:57.810Z,6.50
2022-11-13T21:24:45.621Z,6.50
2022-11-13T21:27:33.571Z,6.60
2022-11-13T21:30:22.356Z,6.50
2022-11-13T21:33:10.225Z,6.40
2022-11-13T21:36:05.281Z,6.40
2022-11-13T21:38:55.068Z,6.40
2022-11-13T21:41:42.840Z,6.50
2022-11-13T21:44:49.669Z,6.20
2022-11-13T21:47:37.559Z,6.20
2022-11-13T21:50:27.994Z,6.10
2022-11-13T21:53:15.840Z,6.00
2022-11-13T21:56:04.546Z,5.90
2022-11-13T21:58:56.038Z,6.00
2022-11-13T22:01:44.064Z,5.80
2022-11-13T22:04:31.966Z,5.90
2022-11-13T22:07:19.918Z,5.80
2022-11-13T22:10:08.744Z,5.80
2022-11-13T22:12:56.737Z,5.80
2022-11-13T22:15:44.720Z,5.80
2022-11-13T22:18:33.520Z,5.90
2022-11-13T22:21:22.957Z,5.80
2022-11-13T22:24:12.054Z,5.80
2022-11-13T22:26:59.922Z,5.80
2022-11-13T22:29:47.777Z,5.80
2022-11-13T22:32:35.538Z,5.50
2022-11-13T22:35:23.359Z,5.30
2022-11-13T22:38:12.339Z,5.30
2022-11-13T22:41:05.333Z,5.30
2022-11-13T22:43:57.110Z,5.10
2022-11-13T22:46:44.892Z,5.10
2022-11-13T22:49:32.670Z,5.10
2022-11-13T22:52:20.512Z,5.30
2022-11-13T22:55:08.647Z,5.20
2022-11-13T22:57:59.216Z,5.30
2022-11-13T23:00:47.097Z,5.30
2022-11-13T23:03:40.268Z,5.40
2022-11-13T23:06:31.717Z,5.30
2022-11-13T23:09:22.378Z,5.50
2022-11-13T23:12:10.480Z,5.50
2022-11-13T23:14:58.483Z,5.30
2022-11-13T23:17:46.949Z,5.40
2022-11-13T23:20:40.326Z,5.70
2022-11-13T23:23:28.562Z,5.80
2022-11-13T23:26:17.256Z,5.90
2022-11-13T23:29:05.040Z,5.80
2022-11-13T23:31:52.872Z,5.60
2022-11-13T23:34:58.790Z,5.60
2022-11-13T23:37:47.594Z,5.80
2022-11-13T23:40:35.666Z,5.90
2022-11-13T23:43:36.414Z,5.80
2022-11-13T23:46:32.733Z,5.80
2022-11-13T23:49:20.637Z,5.70
2022-11-13T23:52:08.476Z,5.60
2022-11-13T23:54:56.433Z,5.90
2022-11-13T23:57:44.383Z,6.00
